Golden Gate, Illinois
Current Conditions -  °F | °C
As of 8:15 PM on Sunday 25 Jan 2015 (Local Time) from KFWC Reporting Station
Overcast Overcast  
Wind Chill: 27°   Ceiling: 700
Heat Index: 36°   Visibility: 7mi
Dew Point: 34°   Wind: 13mph
Humidity: 94%   Direction: 350°N
Pressure: 29.79"   Gusts: 26mph
Location:  38.36°N, 88.2°W
Report Text: KFWC 260215Z AUTO 35011G23KT 7SM OVC007 02/01 A2979 RMK AO1 T00200011
Loading
Personal Weather Stations






























Interactive Weather Map New forecast layout! Learn more

10-Day Weather Forecast

Advertisements
Track Severe Weather on mobile